Time;durP1;ratioP1;P1;durP2;ratioP2;P2;SDS_P1;SDS_P2;PMS_P1;PMS_P2;Temp;Humidity;BMP_temperature;BMP_pressure;BME280_temperature;BME280_humidity;BME280_pressure;Samples;Min_cycle;Max_cycle;Signal;HPM_P1;HPM_P2
2022/04/05 00:02:17;;;;;;;7.28;2.60;;;;;;;2.08;38.26;97977.13;4967667;28;20055;-68
2022/04/05 00:04:43;;;;;;;8.27;2.60;;;;;;;1.93;38.80;97985.94;4971854;28;20057;-68
2022/04/05 00:07:10;;;;;;;6.18;2.40;;;;;;;1.84;38.96;97982.94;4972311;28;20415;-68
2022/04/05 00:09:36;;;;;;;6.75;2.38;;;;;;;1.75;39.27;97984.50;4978755;28;20046;-67
2022/04/05 00:12:03;;;;;;;5.88;2.47;;;;;;;1.62;39.21;97961.53;4971874;28;20055;-68
2022/04/05 00:14:29;;;;;;;8.80;2.80;;;;;;;1.71;39.53;97978.00;4972346;28;20047;-68
2022/04/05 00:16:55;;;;;;;11.27;3.03;;;;;;;1.86;39.08;97979.16;4970646;28;20049;-68
2022/04/05 00:19:22;;;;;;;8.75;3.00;;;;;;;1.91;39.15;97977.31;4970233;28;20427;-68
2022/04/05 00:21:48;;;;;;;8.18;2.70;;;;;;;1.94;38.97;97960.59;4976817;28;20046;-66
2022/04/05 00:24:15;;;;;;;8.77;3.03;;;;;;;2.00;38.99;97966.81;4978217;28;20046;-68
2022/04/05 00:26:41;;;;;;;8.68;3.10;;;;;;;1.94;38.96;97968.69;4970879;28;20457;-69
2022/04/05 00:29:07;;;;;;;9.27;2.75;;;;;;;2.01;38.84;97967.66;4968783;28;20077;-67
2022/04/05 00:31:34;;;;;;;9.52;3.03;;;;;;;1.93;39.02;97967.06;4969744;28;20511;-68
2022/04/05 00:34:00;;;;;;;7.07;2.78;;;;;;;1.84;39.15;97964.06;4964998;28;20093;-67
2022/04/05 00:36:27;;;;;;;8.55;3.03;;;;;;;1.86;39.26;97962.97;4971580;28;20538;-68
2022/04/05 00:38:53;;;;;;;11.80;3.25;;;;;;;1.86;39.15;97966.50;4970098;28;20423;-68
2022/04/05 00:41:19;;;;;;;7.70;2.78;;;;;;;1.88;39.11;97958.97;4970420;28;20507;-67
2022/04/05 00:43:46;;;;;;;8.63;2.70;;;;;;;1.81;39.18;97961.91;4971889;28;20045;-68
2022/04/05 00:46:12;;;;;;;7.72;2.72;;;;;;;1.79;39.19;97957.84;4971738;28;20051;-69
2022/04/05 00:48:48;;;;;;;10.63;2.80;;;;;;;1.78;39.14;97959.72;4965348;28;20050;-69
2022/04/05 00:51:15;;;;;;;7.00;2.60;;;;;;;1.61;39.50;97956.41;4985685;28;20058;-69
2022/04/05 00:53:45;;;;;;;11.82;2.95;;;;;;;1.68;39.39;97955.09;4970810;28;20522;-67
2022/04/05 00:56:13;;;;;;;8.63;2.90;;;;;;;1.55;39.79;97953.66;4970423;28;20109;-68
2022/04/05 00:58:40;;;;;;;;;;;;;;;1.66;39.68;97943.78;4972500;28;20451;-69
2022/04/05 01:01:09;;;;;;;8.00;3.13;;;;;;;1.61;39.61;97949.13;4970609;28;20353;-68
2022/04/05 01:03:38;;;;;;;10.77;2.70;;;;;;;1.65;39.57;97944.84;4975466;28;20058;-70
2022/04/05 01:06:06;;;;;;;8.18;2.35;;;;;;;1.52;39.92;97943.41;4978492;28;20106;-70
2022/04/05 01:08:31;;;;;;;;;;;;;;;1.62;39.71;97941.88;4965469;28;20533;-70
2022/04/05 01:11:00;;;;;;;6.72;2.30;;;;;;;1.51;39.73;97938.31;4971026;28;19930;-70
2022/04/05 01:13:28;;;;;;;7.82;2.47;;;;;;;1.47;40.13;97932.63;4966605;28;20054;-70
2022/04/05 01:15:55;;;;;;;6.47;2.40;;;;;;;1.37;40.21;97936.06;4967396;28;20097;-70
2022/04/05 01:18:21;;;;;;;12.20;2.70;;;;;;;1.51;40.05;97939.09;4976277;28;20047;-70
2022/04/05 01:20:47;;;;;;;6.65;2.47;;;;;;;1.37;39.94;97914.53;4966425;28;20047;-70
2022/04/05 01:23:13;;;;;;;9.15;2.63;;;;;;;1.37;40.22;97925.31;4970251;28;20046;-71
2022/04/05 01:25:42;;;;;;;8.07;2.90;;;;;;;1.31;40.38;97929.00;4971126;28;20452;-70
2022/04/05 01:28:08;;;;;;;7.55;2.83;;;;;;;1.34;40.41;97928.53;4971143;28;20055;-70
2022/04/05 01:30:34;;;;;;;10.55;2.78;;;;;;;1.33;40.35;97929.59;4966805;28;20045;-70
2022/04/05 01:33:01;;;;;;;7.38;2.90;;;;;;;1.41;40.34;97930.97;4970550;28;20088;-70
2022/04/05 01:35:27;;;;;;;8.05;2.88;;;;;;;1.41;40.13;97920.22;4970327;28;20047;-69
2022/04/05 01:37:54;;;;;;;9.23;2.72;;;;;;;1.50;40.17;97923.22;4970370;28;20055;-70
2022/04/05 01:40:20;;;;;;;6.32;2.78;;;;;;;1.17;40.88;97922.47;4969070;28;20058;-70
2022/04/05 01:42:46;;;;;;;6.97;2.50;;;;;;;1.33;40.44;97926.06;4968935;28;20069;-70
2022/04/05 01:45:12;;;;;;;6.25;2.50;;;;;;;1.44;40.37;97927.75;4969504;28;20046;-70
2022/04/05 01:47:39;;;;;;;9.77;2.70;;;;;;;1.44;40.38;97924.25;4957053;28;20138;-70
2022/04/05 01:50:06;;;;;;;8.75;3.10;;;;;;;1.37;40.34;97925.31;4967168;28;20105;-70
2022/04/05 01:52:33;;;;;;;8.98;3.13;;;;;;;1.38;40.36;97913.47;4971872;28;20042;-71
2022/04/05 01:54:59;;;;;;;7.50;2.60;;;;;;;1.29;40.55;97908.81;4970533;28;20122;-70
2022/04/05 01:57:25;;;;;;;9.20;2.70;;;;;;;1.33;40.56;97920.69;4959850;28;20101;-70
2022/04/05 01:59:52;;;;;;;8.13;2.47;;;;;;;1.27;40.70;97912.59;4972727;28;20118;-69
2022/04/05 02:02:18;;;;;;;8.80;2.95;;;;;;;1.19;41.01;97910.38;4965347;28;20050;-70
2022/04/05 02:04:45;;;;;;;6.05;2.33;;;;;;;1.24;40.94;97912.28;4967082;28;20515;-70
2022/04/05 02:07:13;;;;;;;5.53;2.30;;;;;;;1.22;40.94;97909.84;4978323;28;20051;-70
2022/04/05 02:09:40;;;;;;;5.75;2.10;;;;;;;1.10;41.05;97901.19;4982100;28;20047;-70
2022/04/05 02:12:07;;;;;;;6.25;2.10;;;;;;;1.15;41.06;97903.88;4983518;28;20055;-70
2022/04/05 02:14:43;;;;;;;4.95;2.10;;;;;;;1.17;41.14;97904.44;4970870;28;20418;-69
2022/04/05 02:17:15;;;;;;;5.95;2.15;;;;;;;1.12;41.28;97902.53;4971397;28;20062;-69
2022/04/05 02:19:44;;;;;;;5.85;2.10;;;;;;;1.00;41.41;97893.81;4965486;28;20462;-69
2022/04/05 02:22:13;;;;;;;6.68;2.13;;;;;;;1.06;41.57;97902.75;4976703;28;20082;-70
2022/04/05 02:24:40;;;;;;;6.97;2.20;;;;;;;1.08;41.34;97889.81;4962134;28;20039;-69
2022/04/05 02:27:07;;;;;;;7.32;1.92;;;;;;;1.04;41.44;97894.94;4970914;28;20511;-69
2022/04/05 02:29:36;;;;;;;7.05;2.40;;;;;;;0.98;41.37;97891.41;4968612;28;20047;-70
2022/04/05 02:32:09;;;;;;;8.48;2.20;;;;;;;0.90;41.69;97894.56;4969765;28;20046;-70
2022/04/05 02:34:38;;;;;;;5.85;1.95;;;;;;;0.95;41.78;97883.84;4969031;28;20507;-69
2022/04/05 02:37:05;;;;;;;6.57;2.13;;;;;;;0.94;41.81;97901.06;4954048;28;20054;-69
2022/04/05 02:39:35;;;;;;;4.55;1.95;;;;;;;0.82;41.65;97871.63;4969782;28;20073;-68
2022/04/05 02:42:04;;;;;;;5.38;1.92;;;;;;;0.93;41.78;97877.09;4982361;28;20059;-68
2022/04/05 02:44:34;;;;;;;5.63;2.10;;;;;;;0.95;41.78;97881.16;4960106;28;20047;-69
2022/04/05 02:47:04;;;;;;;5.65;2.03;;;;;;;0.85;42.17;97883.75;4986385;28;20510;-70
2022/04/05 02:49:33;;;;;;;12.05;2.13;;;;;;;0.82;42.16;97876.22;4968946;28;20051;-70
2022/04/05 02:52:01;;;;;;;10.82;2.55;;;;;;;0.79;42.36;97887.50;4936509;28;20499;-76
2022/04/05 02:54:36;;;;;;;4.72;1.83;;;;;;;0.81;42.10;97874.59;4969276;28;20047;-75
2022/04/05 02:57:04;;;;;;;7.90;2.20;;;;;;;0.78;42.23;97878.59;4972800;28;20063;-80
2022/04/05 02:59:31;;;;;;;8.27;2.60;;;;;;;0.76;42.38;97882.59;4954972;28;20057;-73
2022/04/05 03:01:58;;;;;;;7.55;2.30;;;;;;;0.81;42.29;97886.16;4966676;28;20051;-74
2022/04/05 03:04:25;;;;;;;8.50;2.60;;;;;;;0.68;42.56;97878.50;4942605;28;20047;-74
2022/04/05 03:06:52;;;;;;;7.05;2.47;;;;;;;0.71;42.52;97880.72;4952531;28;20054;-76
2022/04/05 03:09:21;;;;;;;;;;;;;;;0.72;42.55;97866.19;4970635;28;20142;-73
2022/04/05 03:11:50;;;;;;;8.50;2.47;;;;;;;0.67;42.83;97885.78;4961289;28;19926;-74
2022/04/05 03:14:18;;;;;;;10.07;3.00;;;;;;;0.61;42.86;97865.28;4974988;28;20061;-74
2022/04/05 03:16:45;;;;;;;9.45;2.85;;;;;;;0.69;42.63;97867.50;4973110;28;20526;-74
2022/04/05 03:19:16;;;;;;;7.93;2.60;;;;;;;0.70;42.63;97866.44;4967095;28;20503;-76
2022/04/05 03:21:44;;;;;;;9.33;3.13;;;;;;;0.72;42.99;97866.19;4981179;28;20097;-75
2022/04/05 03:24:11;;;;;;;8.27;3.00;;;;;;;0.66;43.04;97877.97;4972484;28;20443;-74
2022/04/05 03:26:38;;;;;;;6.75;2.53;;;;;;;0.53;43.43;97880.00;4974730;28;20423;-76
2022/04/05 03:29:05;;;;;;;9.32;2.47;;;;;;;0.55;43.60;97880.59;4955803;28;20050;-76
2022/04/05 03:31:31;;;;;;;10.80;2.70;;;;;;;0.64;43.19;97880.94;4978500;28;20053;-76
2022/04/05 03:33:58;;;;;;;6.07;2.35;;;;;;;0.52;43.59;97870.31;4980306;28;20112;-76
2022/04/05 03:36:24;;;;;;;5.90;2.40;;;;;;;0.53;43.71;97889.97;4955951;28;20047;-76
2022/04/05 03:38:50;;;;;;;5.85;2.13;;;;;;;0.54;43.71;97873.56;4969197;28;20412;-76
2022/04/05 03:41:17;;;;;;;6.65;2.15;;;;;;;0.58;43.64;97876.56;4963631;28;20066;-76
2022/04/05 03:43:45;;;;;;;5.13;2.00;;;;;;;0.63;43.56;97881.16;4961533;28;20042;-76
2022/04/05 03:46:17;;;;;;;6.10;2.03;;;;;;;0.63;43.47;97878.47;4988206;28;20049;-77
2022/04/05 03:48:45;;;;;;;7.38;2.00;;;;;;;0.67;43.69;97885.78;4956591;28;20422;-76
2022/04/05 03:51:14;;;;;;;8.32;2.40;;;;;;;0.75;43.46;97872.91;4956027;28;20066;-75
2022/04/05 03:53:54;;;;;;;7.03;2.05;;;;;;;0.74;43.65;97879.38;4958439;28;20523;-74
2022/04/05 03:56:21;;;;;;;4.68;1.92;;;;;;;0.81;43.52;97861.13;4980902;28;20121;-74
2022/04/05 03:58:49;;;;;;;4.72;2.20;;;;;;;0.81;43.49;97861.13;4967245;28;20051;-76
2022/04/05 04:01:16;;;;;;;7.47;2.45;;;;;;;0.87;43.53;97864.69;4962194;28;20051;-74
2022/04/05 04:03:43;;;;;;;7.15;2.15;;;;;;;0.76;43.92;97856.53;4975466;28;20047;-76
2022/04/05 04:06:10;;;;;;;6.50;2.17;;;;;;;0.82;43.83;97868.16;4979578;28;20053;-74
2022/04/05 04:08:36;;;;;;;6.15;2.10;;;;;;;0.79;44.04;97857.91;4952933;28;20054;-74
2022/04/05 04:11:03;;;;;;;7.00;2.40;;;;;;;0.79;43.78;97864.06;4978001;28;20054;-76
2022/04/05 04:13:30;;;;;;;8.07;2.10;;;;;;;0.80;44.07;97863.00;4973568;28;20044;-76
2022/04/05 04:16:01;;;;;;;6.88;2.22;;;;;;;0.84;43.95;97874.06;4972414;28;20427;-73
2022/04/05 04:18:29;;;;;;;7.30;2.37;;;;;;;0.80;44.01;97868.38;4969823;28;20049;-77
2022/04/05 04:20:57;;;;;;;6.95;2.55;;;;;;;0.90;43.92;97862.25;4952919;28;20467;-74
2022/04/05 04:23:24;;;;;;;6.82;2.30;;;;;;;0.95;43.75;97861.50;4984840;28;20055;-73
2022/04/05 04:25:54;;;;;;;10.07;2.83;;;;;;;0.94;43.91;97851.81;4959674;28;20054;-74
2022/04/05 04:28:21;;;;;;;5.53;2.20;;;;;;;0.92;44.19;97862.81;4978934;28;20134;-75
2022/04/05 04:30:48;;;;;;;13.00;2.92;;;;;;;0.91;44.27;97861.19;4970969;28;20047;-73
2022/04/05 04:33:15;;;;;;;8.33;2.83;;;;;;;0.89;44.49;97865.22;4972054;28;20073;-75
2022/04/05 04:35:43;;;;;;;8.43;2.30;;;;;;;0.92;44.57;97870.09;4968501;28;20047;-74
2022/04/05 04:38:09;;;;;;;;;;;;;;;0.93;44.50;97856.34;4972216;28;20137;-74
2022/04/05 04:40:36;;;;;;;9.27;2.60;;;;;;;1.02;44.26;97858.56;4974760;28;19960;-73
2022/04/05 04:43:03;;;;;;;7.60;2.60;;;;;;;1.02;44.41;97861.28;4968846;28;20170;-74
2022/04/05 04:45:31;;;;;;;7.97;2.60;;;;;;;1.04;44.49;97861.81;4970403;28;20137;-74
2022/04/05 04:47:57;;;;;;;9.15;2.40;;;;;;;0.98;44.63;97852.91;4973824;28;20097;-76
2022/04/05 04:50:24;;;;;;;6.93;2.23;;;;;;;1.01;44.73;97854.28;4974712;28;20050;-73
2022/04/05 04:52:50;;;;;;;9.63;2.50;;;;;;;1.12;44.54;97847.88;4970237;28;20042;-76
2022/04/05 04:55:17;;;;;;;5.57;2.20;;;;;;;1.18;44.35;97849.53;4969885;28;20050;-73
2022/04/05 04:57:43;;;;;;;13.65;2.95;;;;;;;1.21;44.58;97853.59;4971580;28;20410;-74
2022/04/05 05:00:11;;;;;;;7.15;2.22;;;;;;;1.16;44.78;97854.34;4970991;28;20522;-74
2022/04/05 05:02:44;;;;;;;5.75;2.25;;;;;;;1.21;44.75;97864.34;4972325;28;20134;-74
2022/04/05 05:05:12;;;;;;;10.80;2.70;;;;;;;1.26;44.75;97862.50;4986352;28;20416;-75
2022/04/05 05:07:40;;;;;;;7.20;2.42;;;;;;;1.27;44.87;97858.72;4977055;28;20053;-71
2022/04/05 05:10:07;;;;;;;7.28;2.50;;;;;;;1.32;45.02;97871.38;4966179;28;20051;-76
2022/04/05 05:12:34;;;;;;;6.88;2.40;;;;;;;1.41;44.93;97859.06;4965420;28;20097;-74
2022/04/05 05:15:02;;;;;;;7.10;2.78;;;;;;;1.44;44.50;97865.00;4969765;28;20132;-73
2022/04/05 05:17:29;;;;;;;10.23;2.75;;;;;;;1.53;44.80;97852.66;4968896;28;20469;-73
2022/04/05 05:19:56;;;;;;;7.43;2.45;;;;;;;1.56;44.88;97849.44;4952770;28;20063;-72
2022/04/05 05:22:22;;;;;;;8.70;2.55;;;;;;;1.62;44.74;97852.97;4968521;28;20062;-73
2022/04/05 05:24:49;;;;;;;6.95;2.30;;;;;;;1.68;44.84;97857.28;4969638;28;20065;-73
2022/04/05 05:27:15;;;;;;;6.45;2.58;;;;;;;1.65;44.86;97850.56;4969885;28;20082;-73
2022/04/05 05:29:41;;;;;;;9.57;2.60;;;;;;;1.75;44.88;97841.69;4966547;28;20181;-73
2022/04/05 05:32:08;;;;;;;6.88;2.60;;;;;;;1.83;44.60;97848.44;4968939;28;20062;-73
2022/04/05 05:34:34;;;;;;;9.43;2.28;;;;;;;1.78;44.78;97851.09;4955771;28;20138;-73
2022/04/05 05:37:00;;;;;;;5.55;2.30;;;;;;;1.79;44.51;97840.06;4970937;28;20055;-74
2022/04/05 05:39:27;;;;;;;9.18;2.80;;;;;;;1.79;44.60;97845.47;4968768;28;20045;-74
2022/04/05 05:41:54;;;;;;;7.93;2.60;;;;;;;1.81;44.83;97842.53;4971686;28;20077;-72
2022/04/05 05:44:21;;;;;;;5.77;2.37;;;;;;;1.86;44.75;97855.19;4971019;28;20038;-68
2022/04/05 05:46:47;;;;;;;12.88;2.47;;;;;;;1.75;44.71;97817.44;4985348;28;20074;-70
2022/04/05 05:49:14;;;;;;;7.65;2.92;;;;;;;1.94;44.70;97835.81;4969448;28;20577;-72
2022/04/05 05:51:40;;;;;;;11.77;2.60;;;;;;;2.01;44.68;97825.56;4968797;28;20039;-69
2022/04/05 05:54:06;;;;;;;9.07;2.58;;;;;;;2.01;45.13;97827.47;4970211;28;20439;-70
2022/04/05 05:56:33;;;;;;;7.10;2.60;;;;;;;1.98;44.60;97813.44;4979748;28;20046;-72
2022/04/05 05:59:00;;;;;;;8.00;2.60;;;;;;;2.13;44.92;97822.63;5002507;28;20132;-71
2022/04/05 06:01:26;;;;;;;11.40;2.97;;;;;;;2.14;44.82;97821.56;4982263;28;20051;-71
2022/04/05 06:03:53;;;;;;;8.70;2.90;;;;;;;2.15;44.73;97809.69;4970981;28;20450;-71
2022/04/05 06:06:19;;;;;;;10.13;2.50;;;;;;;2.25;44.63;97811.59;4970045;28;20054;-71
2022/04/05 06:08:45;;;;;;;7.28;2.30;;;;;;;2.19;44.72;97804.56;4974145;28;20463;-71
2022/04/05 06:11:12;;;;;;;7.13;2.60;;;;;;;2.33;44.47;97819.13;4971572;28;20561;-68
2022/04/05 06:13:38;;;;;;;8.52;2.50;;;;;;;2.46;44.51;97807.00;4983486;28;20558;-71
2022/04/05 06:16:08;;;;;;;16.10;3.10;;;;;;;2.50;44.42;97805.38;4969100;28;20059;-71
2022/04/05 06:18:34;;;;;;;10.07;2.67;;;;;;;2.65;44.24;97817.25;4968026;28;20069;-70
2022/04/05 06:21:00;;;;;;;7.03;2.70;;;;;;;2.72;44.08;97812.38;4970152;28;20050;-70
2022/04/05 06:23:27;;;;;;;7.20;2.70;;;;;;;2.82;44.03;97806.97;4969467;28;20065;-69
2022/04/05 06:25:53;;;;;;;9.60;3.00;;;;;;;3.00;43.96;97818.25;4970013;28;20034;-69
2022/04/05 06:28:19;;;;;;;8.18;2.80;;;;;;;3.07;43.80;97801.78;4969236;28;20553;-70
2022/04/05 06:30:48;;;;;;;7.47;2.42;;;;;;;3.15;43.81;97809.31;4967219;28;20562;-69
2022/04/05 06:33:21;;;;;;;9.10;2.88;;;;;;;3.17;43.55;97814.44;4968726;28;20142;-68
2022/04/05 06:35:50;;;;;;;6.93;2.60;;;;;;;3.17;43.72;97798.22;4970556;28;20050;-72
2022/04/05 06:38:16;;;;;;;8.52;2.70;;;;;;;3.29;43.57;97804.13;4954147;28;20050;-69
2022/04/05 06:40:43;;;;;;;9.35;2.70;;;;;;;3.37;43.55;97790.06;4966442;28;20467;-69
2022/04/05 06:43:10;;;;;;;7.57;2.47;;;;;;;3.37;42.99;97811.69;4968479;28;20054;-69
2022/04/05 06:45:36;;;;;;;9.60;2.60;;;;;;;3.25;43.13;97766.06;4975094;28;20083;-69
2022/04/05 06:48:03;;;;;;;8.88;2.75;;;;;;;3.32;43.09;97794.69;4957434;28;20066;-71
2022/04/05 06:50:31;;;;;;;7.13;2.38;;;;;;;3.38;43.02;97801.66;4971583;28;20051;-68
2022/04/05 06:52:58;;;;;;;11.60;2.58;;;;;;;3.43;42.90;97790.84;4972455;28;20826;-70
2022/04/05 06:55:25;;;;;;;9.98;2.70;;;;;;;3.49;42.97;97791.63;4974553;28;20081;-71
2022/04/05 06:57:52;;;;;;;10.07;3.58;;;;;;;3.49;43.13;97788.91;4976923;28;20101;-71
2022/04/05 07:00:22;;;;;;;12.90;2.78;;;;;;;3.45;42.97;97791.38;4971068;28;20047;-69
2022/04/05 07:02:49;;;;;;;6.90;2.58;;;;;;;3.45;42.64;97796.78;4988343;28;20138;-70
2022/04/05 07:05:15;;;;;;;6.07;2.40;;;;;;;3.42;42.39;97781.13;4973318;28;20054;-69
2022/04/05 07:07:42;;;;;;;6.50;2.45;;;;;;;3.46;42.31;97765.97;4973770;28;20435;-69
2022/04/05 07:10:10;;;;;;;8.68;2.72;;;;;;;3.55;42.30;97818.34;4961956;28;20058;-70
2022/04/05 07:12:37;;;;;;;8.05;2.85;;;;;;;3.54;42.11;97776.19;4975521;28;20488;-70
2022/04/05 07:15:04;;;;;;;5.15;2.30;;;;;;;3.61;41.73;97802.13;4974124;28;20084;-70
2022/04/05 07:17:31;;;;;;;8.60;2.78;;;;;;;3.66;41.91;97783.97;4972746;28;20061;-68
2022/04/05 07:19:57;;;;;;;6.20;2.25;;;;;;;3.69;41.78;97778.03;4974148;28;20051;-72
2022/04/05 07:22:24;;;;;;;7.43;2.50;;;;;;;3.80;41.85;97756.31;4972708;28;20101;-70
2022/04/05 07:24:51;;;;;;;5.35;2.15;;;;;;;3.78;41.58;97810.69;4956786;28;20141;-69
2022/04/05 07:27:17;;;;;;;9.23;2.63;;;;;;;3.73;41.32;97753.94;4970671;28;20074;-67
2022/04/05 07:29:43;;;;;;;7.43;2.38;;;;;;;3.89;41.37;97791.69;4969596;28;20046;-68
2022/04/05 07:32:09;;;;;;;6.97;2.70;;;;;;;3.91;41.57;97760.56;4968089;28;20055;-70
2022/04/05 07:34:36;;;;;;;7.45;2.40;;;;;;;3.99;41.28;97748.34;4973827;28;20511;-69
2022/04/05 07:37:03;;;;;;;7.15;2.70;;;;;;;4.03;41.02;97760.22;4971081;28;20501;-68
2022/04/05 07:39:29;;;;;;;6.55;2.35;;;;;;;4.11;40.93;97783.97;4974856;28;20035;-69
2022/04/05 07:41:57;;;;;;;5.70;2.20;;;;;;;4.12;41.15;97746.91;4971823;28;20042;-71
2022/04/05 07:44:23;;;;;;;8.75;2.85;;;;;;;4.11;40.64;97770.44;4972964;28;20051;-68
2022/04/05 07:46:50;;;;;;;8.07;2.58;;;;;;;4.10;40.65;97758.00;4987854;28;20047;-69
2022/04/05 07:49:17;;;;;;;8.55;3.10;;;;;;;4.13;40.80;97753.91;4972982;28;20047;-70
2022/04/05 07:51:44;;;;;;;7.90;2.50;;;;;;;4.16;40.21;97760.66;4975613;28;20051;-68
2022/04/05 07:54:10;;;;;;;10.30;2.60;;;;;;;4.26;40.35;97749.78;4971130;28;20458;-69
2022/04/05 07:56:36;;;;;;;9.05;2.83;;;;;;;4.40;40.38;97736.38;4978135;28;20164;-70
2022/04/05 07:59:03;;;;;;;6.50;2.53;;;;;;;4.53;40.10;97734.94;4951740;28;20113;-70
2022/04/05 08:01:29;;;;;;;12.05;2.97;;;;;;;4.63;39.93;97756.47;4964561;28;20069;-68
2022/04/05 08:03:56;;;;;;;9.30;2.70;;;;;;;4.73;39.39;97738.53;4971524;28;20081;-68
2022/04/05 08:06:27;;;;;;;8.65;2.78;;;;;;;4.78;39.61;97742.00;4969007;28;20046;-69
2022/04/05 08:08:53;;;;;;;6.72;2.60;;;;;;;4.88;39.75;97757.31;4970595;28;20062;-70
2022/04/05 08:11:19;;;;;;;8.82;2.70;;;;;;;4.78;38.94;97728.44;4937419;28;20392;-68
2022/04/05 08:13:46;;;;;;;9.65;2.90;;;;;;;4.99;39.09;97733.63;4971305;28;20053;-66
2022/04/05 08:16:13;;;;;;;10.15;2.70;;;;;;;5.14;38.86;97734.56;4972450;28;20058;-70
2022/04/05 08:18:39;;;;;;;9.30;2.72;;;;;;;5.20;38.46;97720.66;4973096;28;20043;-69
2022/04/05 08:21:05;;;;;;;9.98;2.55;;;;;;;5.19;38.34;97765.09;4974496;28;20050;-71
2022/04/05 08:23:31;;;;;;;6.82;2.63;;;;;;;5.11;37.36;97722.38;4970163;28;20137;-70
2022/04/05 08:25:58;;;;;;;9.10;2.55;;;;;;;5.14;38.01;97758.94;4969242;28;20047;-68
2022/04/05 08:28:25;;;;;;;7.82;2.58;;;;;;;5.25;38.13;97723.28;4964774;28;20049;-69
2022/04/05 08:30:51;;;;;;;9.32;2.50;;;;;;;5.36;37.79;97726.66;4966245;28;20061;-70
2022/04/05 08:33:17;;;;;;;7.72;2.63;;;;;;;5.39;37.53;97739.66;4972135;28;20044;-75
2022/04/05 08:35:44;;;;;;;6.72;2.70;;;;;;;5.38;37.39;97750.78;4970605;28;20455;-75
2022/04/05 08:38:10;;;;;;;9.70;2.78;;;;;;;5.46;37.48;97728.44;4970403;28;20422;-75
2022/04/05 08:40:36;;;;;;;5.18;2.40;;;;;;;5.52;37.08;97723.75;4938789;28;20039;-75
2022/04/05 08:43:03;;;;;;;7.88;2.55;;;;;;;5.54;36.84;97710.72;4970327;28;20087;-74
2022/04/05 08:45:29;;;;;;;6.70;2.33;;;;;;;5.50;36.73;97707.78;4971252;28;20073;-75
2022/04/05 08:47:56;;;;;;;5.80;2.40;;;;;;;5.54;36.53;97724.25;4971348;28;20130;-69
2022/04/05 08:50:25;;;;;;;6.65;2.70;;;;;;;5.62;36.67;97709.25;4971649;28;20053;-69
2022/04/05 08:52:54;;;;;;;5.93;2.50;;;;;;;5.71;36.49;97710.22;4977206;28;20505;-69
2022/04/05 08:55:21;;;;;;;7.00;2.40;;;;;;;5.71;36.24;97688.50;4988610;28;20051;-68
2022/04/05 08:57:47;;;;;;;7.13;2.20;;;;;;;5.75;35.79;97710.44;4985358;28;20320;-69
2022/04/05 09:00:15;;;;;;;6.50;2.40;;;;;;;5.79;35.76;97701.41;4969374;28;20046;-70
2022/04/05 09:02:54;;;;;;;6.75;2.25;;;;;;;5.76;35.75;97695.78;4966602;28;20057;-75
2022/04/05 09:05:28;;;;;;;7.18;2.50;;;;;;;5.66;35.18;97700.22;4968018;28;20073;-75
2022/04/05 09:08:11;;;;;;;5.53;2.20;;;;;;;5.56;35.62;97691.44;4970819;28;20428;-73
2022/04/05 09:10:37;;;;;;;5.22;2.13;;;;;;;5.62;35.39;97698.41;4970416;28;20538;-74
2022/04/05 09:13:04;;;;;;;6.43;2.25;;;;;;;5.53;34.88;97698.25;4970612;28;20422;-77
2022/04/05 09:15:34;;;;;;;5.30;1.90;;;;;;;5.66;34.71;97673.13;4985530;28;20043;-76
2022/04/05 09:18:00;;;;;;;4.15;1.80;;;;;;;5.82;33.56;97687.25;4970137;28;20086;-78
2022/04/05 09:20:27;;;;;;;4.65;1.80;;;;;;;5.88;33.75;97692.59;4978041;28;20105;-76
2022/04/05 09:22:54;;;;;;;6.05;1.80;;;;;;;5.87;33.37;97726.25;4965863;28;20047;-75
2022/04/05 09:25:21;;;;;;;7.70;1.98;;;;;;;5.92;33.66;97680.88;4957164;28;20053;-75
2022/04/05 09:27:49;;;;;;;10.18;2.33;;;;;;;6.04;34.18;97680.44;4970773;28;20404;-75
2022/04/05 09:30:18;;;;;;;5.97;2.30;;;;;;;6.13;34.15;97717.75;4970510;28;20039;-77
2022/04/05 09:32:47;;;;;;;5.68;2.25;;;;;;;6.09;34.32;97712.91;4968434;28;20526;-77
2022/04/05 09:35:15;;;;;;;5.40;2.00;;;;;;;6.10;34.14;97698.25;4975748;28;20062;-77
2022/04/05 09:37:42;;;;;;;5.05;2.05;;;;;;;6.20;33.87;97670.13;4969697;28;20550;-76
2022/04/05 09:40:17;;;;;;;5.78;2.30;;;;;;;6.17;33.71;97684.31;4982671;28;20051;-77
2022/04/05 09:42:58;;;;;;;6.45;2.10;;;;;;;6.22;33.59;97694.25;4994340;28;20051;-76
2022/04/05 09:45:43;;;;;;;6.78;2.42;;;;;;;6.18;33.57;97682.38;4983884;28;20051;-76
2022/04/05 09:48:10;;;;;;;6.00;2.00;;;;;;;6.15;33.55;97658.56;4984982;28;20090;-77
2022/04/05 09:50:59;;;;;;;5.60;2.25;;;;;;;6.03;33.11;97621.06;4959735;28;20511;-76
2022/04/05 09:53:26;;;;;;;4.70;1.90;;;;;;;6.13;33.63;97655.34;4988952;28;20062;-75
2022/04/05 09:56:04;;;;;;;6.25;2.10;;;;;;;6.16;33.50;97650.09;4985331;28;20073;-76
2022/04/05 09:58:30;;;;;;;6.30;2.03;;;;;;;6.28;33.28;97656.97;4953537;28;20480;-76
2022/04/05 10:01:08;;;;;;;5.60;2.00;;;;;;;6.38;33.62;97648.66;4957501;28;20074;-76
2022/04/05 10:03:35;;;;;;;4.70;2.05;;;;;;;6.46;33.42;97647.94;4971244;28;20090;-76
2022/04/05 10:06:03;;;;;;;8.02;2.50;;;;;;;6.58;33.13;97617.59;4971171;28;20062;-75
2022/04/05 10:08:31;;;;;;;4.88;1.90;;;;;;;6.77;33.04;97650.06;4976717;28;20128;-77
2022/04/05 10:10:57;;;;;;;7.85;2.40;;;;;;;6.77;32.91;97654.72;4971262;28;20050;-77
2022/04/05 10:13:24;;;;;;;5.63;2.08;;;;;;;6.79;32.62;97647.88;4971830;28;20055;-78
2022/04/05 10:15:51;;;;;;;5.47;2.20;;;;;;;6.81;32.47;97633.97;4983747;28;20057;-77
2022/04/05 10:18:21;;;;;;;5.63;1.80;;;;;;;6.62;32.92;97672.91;4993901;28;20056;-77
2022/04/05 10:20:49;;;;;;;5.50;2.20;;;;;;;6.62;33.05;97647.66;4984906;28;20156;-77
2022/04/05 10:23:19;;;;;;;3.88;1.90;;;;;;;6.69;33.07;97652.69;4953484;28;20069;-78
2022/04/05 10:25:49;;;;;;;5.22;2.05;;;;;;;6.72;33.01;97635.81;4966240;28;20462;-77
2022/04/05 10:28:16;;;;;;;7.25;2.17;;;;;;;6.61;33.02;97648.75;4971436;28;20058;-77
2022/04/05 10:30:48;;;;;;;5.25;2.03;;;;;;;6.49;33.06;97631.06;4972589;28;20085;-77
2022/04/05 10:33:21;;;;;;;5.72;2.28;;;;;;;6.42;32.94;97633.38;4986602;28;20053;-76
2022/04/05 10:35:53;;;;;;;10.07;2.08;;;;;;;6.53;33.33;97625.81;4979399;28;20055;-77
2022/04/05 10:38:21;;;;;;;6.47;2.17;;;;;;;6.46;33.52;97606.44;4985246;28;20130;-77
2022/04/05 10:41:11;;;;;;;9.13;2.25;;;;;;;6.65;33.24;97598.97;4990212;28;20493;-76
2022/04/05 10:43:41;;;;;;;5.40;2.20;;;;;;;6.77;33.54;97622.91;4971754;28;20483;-77
2022/04/05 10:46:08;;;;;;;7.13;2.30;;;;;;;6.79;33.08;97612.56;4952388;28;20137;-77
2022/04/05 10:48:34;;;;;;;9.45;2.10;;;;;;;6.84;33.47;97614.34;4957781;28;20055;-76
2022/04/05 10:51:11;;;;;;;6.53;2.58;;;;;;;6.93;33.06;97598.13;4979145;28;20141;-76
2022/04/05 10:53:41;;;;;;;8.10;2.10;;;;;;;7.04;33.02;97587.88;4966201;28;22477;-77
2022/04/05 10:56:15;;;;;;;6.50;2.22;;;;;;;7.01;32.79;97618.34;4983608;28;20047;-77
2022/04/05 10:59:17;;;;;;;6.25;2.10;;;;;;;7.15;32.38;97602.03;4970479;28;20140;-75
2022/04/05 11:01:46;;;;;;;5.43;1.92;;;;;;;7.12;32.44;97614.31;4965382;28;20133;-76
2022/04/05 11:04:33;;;;;;;6.68;1.98;;;;;;;7.07;32.47;97606.28;4969551;28;20137;-76
2022/04/05 11:07:12;;;;;;;5.65;2.20;;;;;;;6.95;32.20;97604.88;4971736;28;20050;-74
2022/04/05 11:09:53;;;;;;;6.35;2.28;;;;;;;6.78;32.79;97623.72;4965804;28;20458;-76
2022/04/05 11:12:24;;;;;;;6.00;1.90;;;;;;;6.71;32.75;97607.00;4962918;28;20046;-75
2022/04/05 11:14:52;;;;;;;4.82;2.05;;;;;;;6.65;32.25;97598.97;4983196;28;20053;-76
2022/04/05 11:17:21;;;;;;;7.38;2.20;;;;;;;6.66;32.88;97583.50;4967849;28;20050;-76
2022/04/05 11:19:50;;;;;;;6.93;2.13;;;;;;;6.53;33.24;97598.66;4952117;28;20054;-77
2022/04/05 11:22:27;;;;;;;4.47;2.00;;;;;;;6.51;32.74;97644.31;4971537;28;20051;-76
2022/04/05 11:24:55;;;;;;;4.70;1.95;;;;;;;6.43;32.92;97590.75;4988431;28;20054;-75
2022/04/05 11:27:26;;;;;;;;;;;;;;;6.35;33.20;97593.03;5006813;28;20066;-75
2022/04/05 11:30:37;;;;;;;5.40;2.30;;;;;;;6.43;33.46;97571.75;4961614;28;20074;-72
2022/04/05 11:33:37;;;;;;;6.95;2.30;;;;;;;6.41;33.09;97598.41;4912578;28;20538;-75
2022/04/05 11:36:07;;;;;;;5.97;2.20;;;;;;;6.31;33.37;97634.66;4956263;28;20145;-76
2022/04/05 11:38:38;;;;;;;4.63;1.90;;;;;;;6.06;33.72;97569.69;4954138;28;20079;-75
2022/04/05 11:41:08;;;;;;;6.40;2.00;;;;;;;5.88;33.63;97600.38;4965972;28;20367;-74
2022/04/05 11:43:41;;;;;;;5.93;2.05;;;;;;;5.75;34.10;97591.13;4953654;29;20082;-75
2022/04/05 11:46:11;;;;;;;4.63;1.90;;;;;;;5.66;34.23;97605.34;4959913;28;20106;-74
2022/04/05 11:48:42;;;;;;;4.97;2.10;;;;;;;5.62;34.80;97600.78;4962973;28;20138;-77